Dover, Delaware
Current Conditions -  °F | °C
As of 5:58 PM on Tuesday 25 Nov 2014 (Local Time) from KDOV Reporting Station
Clear Clear  
Wind Chill:   Ceiling: Unl
Heat Index:   Visibility: 10mi
Dew Point:   Wind: 2mph
Humidity: 64%   Direction: 140°SE
Pressure: 30.07"   Gusts: NA
Location:  39.16°N, 75.52°W
Report Text: KDOV 252258Z AUTO 14002KT 10SM CLR 10/03 A3007 RMK AO2 SLP186 T00950029
Loading
Personal Weather Stations






























Interactive Weather Map New forecast layout! Learn more

10-Day Weather Forecast

Advertisements
Track Severe Weather on mobile